createdAt,value
2017-12-31T00:00:43.269Z,45.5
2017-12-31T00:01:44.887Z,45.5
2017-12-31T00:02:46.513Z,45
2017-12-31T00:03:48.407Z,45.3
2017-12-31T00:04:49.749Z,45.2
2017-12-31T00:05:51.372Z,45.3
2017-12-31T00:06:52.988Z,45.3
2017-12-31T00:07:54.886Z,45.3
2017-12-31T00:08:56.225Z,45.5
2017-12-31T00:09:58.121Z,45.6
2017-12-31T00:10:59.741Z,45.3
2017-12-31T00:12:01.362Z,45.3
2017-12-31T00:13:03.256Z,45.3
2017-12-31T00:14:05.152Z,45.3
2017-12-31T00:15:07.056Z,45.3
2017-12-31T00:16:08.095Z,45.4
2017-12-31T00:17:09.137Z,45.1
2017-12-31T00:18:10.478Z,45.4
2017-12-31T00:19:12.408Z,45.2
2017-12-31T00:20:14.012Z,45.3
2017-12-31T00:21:15.912Z,45.4
2017-12-31T00:22:17.249Z,45.4
2017-12-31T00:23:18.868Z,45.3
2017-12-31T00:24:20.488Z,45.3
2017-12-31T00:25:22.106Z,45.3
2017-12-31T00:26:24.006Z,45.2
2017-12-31T00:27:25.326Z,45.4
2017-12-31T00:28:26.929Z,45.2
2017-12-31T00:29:28.522Z,45.3
2017-12-31T00:30:29.843Z,45.3
2017-12-31T00:31:31.459Z,45.3
2017-12-31T00:32:32.527Z,45.5
2017-12-31T00:33:34.128Z,45.3
2017-12-31T00:34:36.023Z,45.3
2017-12-31T00:35:37.924Z,45.4
2017-12-31T00:36:39.541Z,45.3
2017-12-31T00:37:40.897Z,45.3
2017-12-31T00:38:42.518Z,45.3
2017-12-31T00:39:43.837Z,45.3
2017-12-31T00:40:45.455Z,45.3
2017-12-31T00:41:47.058Z,45.3
2017-12-31T00:42:48.392Z,45.3
2017-12-31T00:43:50.012Z,45.3
2017-12-31T00:44:51.906Z,45.3
2017-12-31T00:45:53.525Z,45.3
2017-12-31T00:46:55.145Z,45.3
2017-12-31T00:47:57.042Z,45.4
2017-12-31T00:48:58.939Z,45.4
2017-12-31T00:50:00.558Z,45.3
2017-12-31T00:51:02.177Z,45.3
2017-12-31T00:52:03.798Z,45.3
2017-12-31T00:53:05.416Z,45.4
2017-12-31T00:54:07.012Z,45.3
2017-12-31T00:55:08.353Z,45.2
2017-12-31T00:56:09.978Z,45.2
2017-12-31T00:57:11.595Z,45.2
2017-12-31T00:58:13.213Z,45.3
2017-12-31T00:59:14.831Z,45.3
2017-12-31T01:00:16.428Z,45.2
2017-12-31T01:01:18.326Z,45.2
2017-12-31T01:02:20.223Z,45.4
2017-12-31T01:03:21.267Z,45.5
2017-12-31T01:04:23.166Z,45.2
2017-12-31T01:05:24.506Z,45.3
2017-12-31T01:06:26.103Z,45.3
2017-12-31T01:07:28.000Z,45.3
2017-12-31T01:08:29.618Z,45.3
2017-12-31T01:09:31.234Z,45.2
2017-12-31T01:10:32.282Z,45.2
2017-12-31T01:11:34.181Z,45.3
2017-12-31T01:12:36.076Z,45.2
2017-12-31T01:13:37.412Z,45.2
2017-12-31T01:14:38.729Z,45.2
2017-12-31T01:15:40.368Z,45.3
2017-12-31T01:16:42.252Z,45.2
2017-12-31T01:17:43.870Z,45.6
2017-12-31T01:18:45.773Z,45.6
2017-12-31T01:19:47.366Z,45.2
2017-12-31T01:20:48.985Z,45.6
2017-12-31T01:21:50.604Z,45.2
2017-12-31T01:22:52.220Z,45.2
2017-12-31T01:23:53.838Z,45.4
2017-12-31T01:24:55.733Z,45.2
2017-12-31T01:25:57.357Z,45.2
2017-12-31T01:26:59.252Z,45.3
2017-12-31T01:28:00.294Z,45.3
2017-12-31T01:29:01.616Z,45.7
2017-12-31T01:30:03.515Z,45.8
2017-12-31T01:31:04.853Z,45.3
2017-12-31T01:32:06.493Z,45.3
2017-12-31T01:33:08.390Z,45.6
2017-12-31T01:34:09.711Z,45.5
2017-12-31T01:35:11.649Z,45.4
2017-12-31T01:36:12.958Z,45.6
2017-12-31T01:37:14.577Z,45.6
2017-12-31T01:38:16.474Z,45.5
2017-12-31T01:39:18.091Z,45.5
2017-12-31T01:40:19.997Z,45.7
2017-12-31T01:41:21.886Z,45.4
2017-12-31T01:42:23.504Z,45.3
2017-12-31T01:43:24.824Z,45.5
2017-12-31T01:44:26.166Z,45.5
2017-12-31T01:45:27.206Z,45.5
2017-12-31T01:46:30.400Z,45.7
2017-12-31T01:47:31.770Z,45.8
2017-12-31T01:48:33.391Z,45.6
2017-12-31T01:49:35.283Z,45.5
2017-12-31T01:50:36.602Z,45.9
2017-12-31T01:51:38.499Z,45.8
2017-12-31T01:52:39.820Z,45.8
2017-12-31T01:53:41.439Z,45.7
2017-12-31T01:54:43.056Z,46
2017-12-31T01:55:44.398Z,45.9
2017-12-31T01:56:46.013Z,45.3
2017-12-31T01:57:47.669Z,45.5
2017-12-31T01:58:49.330Z,45.9
2017-12-31T01:59:50.925Z,45.7
2017-12-31T02:00:52.546Z,45.8
2017-12-31T02:01:54.142Z,45.3
2017-12-31T02:02:56.042Z,45.7
2017-12-31T02:03:57.658Z,45.6
2017-12-31T02:04:59.255Z,45.1
2017-12-31T02:06:01.150Z,45.5
2017-12-31T02:07:03.150Z,45.8
2017-12-31T02:08:04.735Z,45.6
2017-12-31T02:09:06.352Z,45.8
2017-12-31T02:10:07.680Z,45.7
2017-12-31T02:11:09.323Z,45.6
2017-12-31T02:12:10.643Z,45.6
2017-12-31T02:13:12.259Z,45.7
2017-12-31T02:14:14.154Z,45.7
2017-12-31T02:15:15.775Z,45.7
2017-12-31T02:16:17.394Z,45.7
2017-12-31T02:17:19.012Z,45.6
2017-12-31T02:18:20.633Z,45.7
2017-12-31T02:19:22.253Z,45.7
2017-12-31T02:20:23.872Z,45.7
2017-12-31T02:21:25.489Z,45.8
2017-12-31T02:22:26.552Z,45.6
2017-12-31T02:23:28.170Z,45.7
2017-12-31T02:24:30.068Z,45.7
2017-12-31T02:25:31.685Z,45.8
2017-12-31T02:26:33.013Z,45.7
2017-12-31T02:27:34.053Z,45.6
2017-12-31T02:28:35.376Z,45.7
2017-12-31T02:29:36.143Z,45.6
2017-12-31T02:30:37.482Z,45.8
2017-12-31T02:31:39.157Z,45.9
2017-12-31T02:32:40.496Z,45.9
2017-12-31T02:33:42.097Z,46
2017-12-31T02:34:43.689Z,45.8
2017-12-31T02:35:45.011Z,46
2017-12-31T02:36:46.909Z,45.9
2017-12-31T02:37:48.805Z,45.8
2017-12-31T02:38:50.401Z,45.8
2017-12-31T02:39:52.019Z,45.7
2017-12-31T02:40:53.914Z,45.7
2017-12-31T02:41:55.531Z,45.8
2017-12-31T02:42:57.427Z,45.9
2017-12-31T02:43:59.047Z,45.8
2017-12-31T02:45:00.664Z,45.8
2017-12-31T02:46:02.321Z,45.7
2017-12-31T02:47:03.916Z,45.9
2017-12-31T02:48:05.816Z,46
2017-12-31T02:49:07.406Z,45.8
2017-12-31T02:50:09.313Z,45.7
2017-12-31T02:51:10.897Z,45.8
2017-12-31T02:52:12.792Z,46.1
2017-12-31T02:53:14.411Z,46.1
2017-12-31T02:54:16.039Z,46.2
2017-12-31T02:55:17.653Z,46
2017-12-31T02:56:18.993Z,46.3
2017-12-31T02:57:20.908Z,45.9
2017-12-31T02:58:22.817Z,46.1
2017-12-31T02:59:24.709Z,46.1
2017-12-31T03:00:26.061Z,46.1
2017-12-31T03:01:27.959Z,46.1
2017-12-31T03:02:29.578Z,46
2017-12-31T03:03:31.474Z,46.5
2017-12-31T03:04:33.368Z,46.3
2017-12-31T03:05:34.407Z,46
2017-12-31T03:06:36.303Z,46.1
2017-12-31T03:07:37.642Z,46.1
2017-12-31T03:08:39.538Z,46
2017-12-31T03:09:41.176Z,46.1
2017-12-31T03:10:42.517Z,46
2017-12-31T03:11:44.138Z,45.9
2017-12-31T03:12:45.483Z,46.1
2017-12-31T03:13:46.524Z,46.1
2017-12-31T03:14:48.456Z,46.1
2017-12-31T03:15:50.354Z,46.3
2017-12-31T03:16:52.249Z,46.3
2017-12-31T03:17:53.573Z,46.5
2017-12-31T03:18:55.468Z,46.6
2017-12-31T03:19:57.089Z,46.5
2017-12-31T03:20:58.411Z,46.4
2017-12-31T03:22:00.035Z,46.4
2017-12-31T03:23:01.700Z,46.2
2017-12-31T03:24:03.320Z,46.2
2017-12-31T03:25:05.218Z,46.6
2017-12-31T03:26:06.814Z,46.1
2017-12-31T03:27:08.711Z,46.1
2017-12-31T03:28:10.051Z,46.3
2017-12-31T03:29:11.669Z,46.4
2017-12-31T03:30:13.011Z,46.4
2017-12-31T03:31:14.625Z,46.5
2017-12-31T03:32:15.690Z,46.4
2017-12-31T03:33:17.308Z,46.5
2017-12-31T03:34:19.202Z,46.3
2017-12-31T03:35:20.544Z,46.5
2017-12-31T03:36:22.141Z,46.5
2017-12-31T03:37:23.484Z,46.7
2017-12-31T03:38:25.101Z,46.4
2017-12-31T03:39:26.442Z,46.3
2017-12-31T03:40:27.783Z,46.6
2017-12-31T03:41:28.850Z,46.6
2017-12-31T03:42:30.469Z,46.5
2017-12-31T03:43:32.086Z,46.8
2017-12-31T03:44:33.712Z,47
2017-12-31T03:45:35.333Z,46.7
2017-12-31T03:46:36.097Z,46.6
2017-12-31T03:47:37.715Z,46.5
2017-12-31T03:48:38.763Z,46.7
2017-12-31T03:49:40.358Z,46.7
2017-12-31T03:50:42.253Z,46.6
2017-12-31T03:51:43.594Z,46.6
2017-12-31T03:52:44.913Z,46.6
2017-12-31T03:53:46.810Z,46.5
2017-12-31T03:54:48.706Z,47
2017-12-31T03:55:50.327Z,46.9
2017-12-31T03:56:51.943Z,46.8
2017-12-31T03:57:53.844Z,47
2017-12-31T03:58:55.169Z,46.9
2017-12-31T03:59:57.077Z,47
2017-12-31T04:00:58.415Z,46.8
2017-12-31T04:02:00.012Z,46.8
2017-12-31T04:03:01.631Z,46.8
2017-12-31T04:04:03.526Z,46.8
2017-12-31T04:05:05.144Z,46.9
2017-12-31T04:06:06.501Z,46.7
2017-12-31T04:07:07.828Z,46.9
2017-12-31T04:08:09.445Z,46.8
2017-12-31T04:09:11.064Z,47.2
2017-12-31T04:10:12.703Z,47
2017-12-31T04:11:14.602Z,47.1
2017-12-31T04:12:16.510Z,47.2
2017-12-31T04:13:18.113Z,47.1
2017-12-31T04:14:19.730Z,46.8
2017-12-31T04:15:21.625Z,46.9
2017-12-31T04:16:22.967Z,46.9
2017-12-31T04:17:24.307Z,47
2017-12-31T04:18:25.924Z,46.9
2017-12-31T04:19:27.522Z,47.2
2017-12-31T04:20:29.190Z,47.5
2017-12-31T04:21:30.507Z,47.1
2017-12-31T04:22:32.405Z,47
2017-12-31T04:23:34.302Z,46.8
2017-12-31T04:24:35.621Z,47
2017-12-31T04:25:36.961Z,47.7
2017-12-31T04:26:38.281Z,47.4
2017-12-31T04:27:39.327Z,47.4
2017-12-31T04:28:40.946Z,47.5
2017-12-31T04:29:42.842Z,47.3
2017-12-31T04:30:44.189Z,47.6
2017-12-31T04:31:46.086Z,47
2017-12-31T04:32:47.126Z,47.3
2017-12-31T04:33:48.745Z,47.2
2017-12-31T04:34:50.359Z,47.4
2017-12-31T04:35:52.255Z,47.6
2017-12-31T04:36:54.150Z,47.7
2017-12-31T04:37:55.786Z,47.3
2017-12-31T04:38:57.407Z,47.2
2017-12-31T04:39:59.026Z,47.4
2017-12-31T04:41:00.925Z,47.7
2017-12-31T04:42:02.523Z,47.2
2017-12-31T04:43:04.419Z,47.6
2017-12-31T04:44:06.314Z,47.4
2017-12-31T04:45:08.208Z,47.2
2017-12-31T04:46:09.824Z,47.2
2017-12-31T04:47:11.720Z,47.7
2017-12-31T04:48:13.617Z,47.7
2017-12-31T04:49:15.212Z,47.7
2017-12-31T04:50:17.108Z,47.2
2017-12-31T04:51:18.726Z,47.5
2017-12-31T04:52:20.065Z,47.7
2017-12-31T04:53:21.685Z,47.6
2017-12-31T04:54:23.309Z,48.1
2017-12-31T04:55:24.927Z,47.4
2017-12-31T04:56:26.822Z,47.7
2017-12-31T04:57:28.441Z,47.8
2017-12-31T04:58:30.336Z,47.7
2017-12-31T04:59:31.398Z,47.8
2017-12-31T05:00:32.994Z,47.7
2017-12-31T05:01:34.613Z,47.7
2017-12-31T05:02:36.266Z,47.8
2017-12-31T05:03:38.156Z,47.5
2017-12-31T05:04:39.492Z,48
2017-12-31T05:05:41.107Z,47.7
2017-12-31T05:06:42.151Z,47.8
2017-12-31T05:07:43.218Z,47.8
2017-12-31T05:08:43.980Z,47.9
2017-12-31T05:09:45.024Z,47.7
2017-12-31T05:10:46.656Z,47.9
2017-12-31T05:11:48.281Z,47.7
2017-12-31T05:12:50.175Z,48
2017-12-31T05:13:51.774Z,48
2017-12-31T05:14:53.386Z,48.2
2017-12-31T05:15:55.282Z,47.8
2017-12-31T05:16:56.628Z,47.7
2017-12-31T05:17:57.948Z,48
2017-12-31T05:18:59.844Z,47.7
2017-12-31T05:20:01.482Z,48.1
2017-12-31T05:21:03.081Z,48
2017-12-31T05:22:04.702Z,47.7
2017-12-31T05:23:06.050Z,47.6
2017-12-31T05:24:07.666Z,47.7
2017-12-31T05:25:09.297Z,47.7
2017-12-31T05:26:11.213Z,47.6
2017-12-31T05:27:12.831Z,47.6
2017-12-31T05:28:14.172Z,47.7
2017-12-31T05:29:15.792Z,47.7
2017-12-31T05:30:17.134Z,47.7
2017-12-31T05:31:19.079Z,47.7
2017-12-31T05:32:20.693Z,47.7
2017-12-31T05:33:22.316Z,47.7
2017-12-31T05:34:23.913Z,48.2
2017-12-31T05:35:25.242Z,48.1
2017-12-31T05:36:27.135Z,48.4
2017-12-31T05:37:28.755Z,48.3
2017-12-31T05:38:30.373Z,48.6
2017-12-31T05:39:32.297Z,47.7
2017-12-31T05:40:33.642Z,47.8
2017-12-31T05:41:35.538Z,47.8
2017-12-31T05:42:37.136Z,47.8
2017-12-31T05:43:38.757Z,47.9
2017-12-31T05:44:40.653Z,47.7
2017-12-31T05:45:42.249Z,47.8
2017-12-31T05:46:44.149Z,47.8
2017-12-31T05:47:45.469Z,48
2017-12-31T05:48:47.097Z,48.1
2017-12-31T05:49:48.417Z,48.3
2017-12-31T05:50:50.036Z,47.7
2017-12-31T05:51:51.356Z,48.2
2017-12-31T05:52:52.977Z,47.8
2017-12-31T05:53:54.596Z,48.2
2017-12-31T05:54:56.213Z,48.6
2017-12-31T05:55:57.829Z,48.1
2017-12-31T05:56:59.487Z,47.8
2017-12-31T05:58:01.104Z,47.8
2017-12-31T05:59:03.000Z,47.9
2017-12-31T06:00:04.620Z,48.2
2017-12-31T06:01:06.516Z,48.2
2017-12-31T06:02:07.278Z,48.2
2017-12-31T06:03:08.344Z,47.7
2017-12-31T06:04:10.238Z,47.9
2017-12-31T06:05:11.856Z,48
2017-12-31T06:06:13.455Z,47.7
2017-12-31T06:07:14.490Z,48.2
2017-12-31T06:08:16.088Z,48.1
2017-12-31T06:09:17.706Z,48.2
2017-12-31T06:10:18.748Z,48.7
2017-12-31T06:11:20.126Z,48.1
2017-12-31T06:12:21.744Z,48.6
2017-12-31T06:13:23.640Z,48.7
2017-12-31T06:14:25.257Z,48.7
2017-12-31T06:15:26.598Z,48.2
2017-12-31T06:16:27.937Z,48.3
2017-12-31T06:17:29.833Z,48.2
2017-12-31T06:18:31.432Z,48.4
2017-12-31T06:19:33.328Z,48.3
2017-12-31T06:20:35.223Z,48.4
2017-12-31T06:21:36.854Z,48.6
2017-12-31T06:22:38.474Z,48.3
2017-12-31T06:23:40.087Z,48.2
2017-12-31T06:24:41.430Z,48.5
2017-12-31T06:25:42.748Z,48.5
2017-12-31T06:26:44.646Z,48.2
2017-12-31T06:27:46.241Z,48.2
2017-12-31T06:28:48.137Z,48.4
2017-12-31T06:29:49.181Z,48.7
2017-12-31T06:30:50.499Z,48.3
2017-12-31T06:31:51.817Z,48.5
2017-12-31T06:32:53.725Z,48.5
2017-12-31T06:33:55.084Z,48.6
2017-12-31T06:34:56.700Z,48.5
2017-12-31T06:35:57.764Z,48.4
2017-12-31T06:36:59.105Z,48.7
2017-12-31T06:38:00.702Z,48.8
2017-12-31T06:39:02.625Z,48.7
2017-12-31T06:40:03.940Z,48.6
2017-12-31T06:41:05.580Z,48.5
2017-12-31T06:42:07.197Z,48.4
2017-12-31T06:43:08.845Z,48.2
2017-12-31T06:44:10.467Z,48.4
2017-12-31T06:45:11.531Z,48.5
2017-12-31T06:46:12.872Z,48.1
2017-12-31T06:47:14.193Z,48.3
2017-12-31T06:48:15.510Z,48.4
2017-12-31T06:49:17.127Z,48.6
2017-12-31T06:50:18.743Z,48.6
2017-12-31T06:51:20.359Z,48.7
2017-12-31T06:52:22.253Z,48.5
2017-12-31T06:53:23.909Z,48.6
2017-12-31T06:54:25.529Z,48.5
2017-12-31T06:55:26.847Z,48.6
2017-12-31T06:56:28.193Z,48.5
2017-12-31T06:57:29.513Z,48.4
2017-12-31T06:58:31.407Z,48.7
2017-12-31T06:59:33.030Z,48.5
2017-12-31T07:00:34.926Z,48.5
2017-12-31T07:01:36.543Z,48.5
2017-12-31T07:02:38.167Z,48.6
2017-12-31T07:03:39.785Z,48.3
2017-12-31T07:04:41.402Z,48.3
2017-12-31T07:05:43.299Z,48.5
2017-12-31T07:06:44.638Z,48.3
2017-12-31T07:07:46.256Z,48.3
2017-12-31T07:08:47.579Z,48.1
2017-12-31T07:09:49.486Z,47.9
2017-12-31T07:10:51.103Z,48
2017-12-31T07:11:52.719Z,48.5
2017-12-31T07:12:54.339Z,48.2
2017-12-31T07:13:55.944Z,48.2
2017-12-31T07:14:57.282Z,48.1
2017-12-31T07:15:58.902Z,48.3
2017-12-31T07:17:00.806Z,48.6
2017-12-31T07:18:01.865Z,48.2
2017-12-31T07:19:03.485Z,48.3
2017-12-31T07:20:04.811Z,48.2
2017-12-31T07:21:06.424Z,48
2017-12-31T07:22:08.042Z,47.7
2017-12-31T07:23:09.661Z,47.8
2017-12-31T07:24:11.003Z,48.2
2017-12-31T07:25:12.604Z,48.4
2017-12-31T07:26:13.925Z,48.2
2017-12-31T07:27:15.544Z,48.6
2017-12-31T07:28:17.437Z,48.2
2017-12-31T07:29:19.059Z,48.7
2017-12-31T07:30:20.398Z,48.2
2017-12-31T07:31:21.740Z,48.5
2017-12-31T07:32:23.365Z,48.3
2017-12-31T07:33:25.261Z,48.4
2017-12-31T07:34:26.633Z,48.5
2017-12-31T07:35:28.255Z,48.1
2017-12-31T07:36:30.151Z,48.3
2017-12-31T07:37:31.499Z,48.2
2017-12-31T07:38:33.115Z,48.2
2017-12-31T07:39:35.016Z,48.4
2017-12-31T07:40:36.614Z,48.7
2017-12-31T07:41:37.937Z,48.1
2017-12-31T07:42:39.549Z,48.2
2017-12-31T07:43:41.436Z,48.2
2017-12-31T07:44:42.772Z,48.5
2017-12-31T07:45:44.394Z,48.6
2017-12-31T07:46:46.290Z,48.5
2017-12-31T07:47:47.611Z,48.2
2017-12-31T07:48:48.935Z,48
2017-12-31T07:49:50.277Z,48.4
2017-12-31T07:50:51.874Z,48.2
2017-12-31T07:51:53.500Z,47.8
2017-12-31T07:52:54.817Z,48
2017-12-31T07:53:56.436Z,47.8
2017-12-31T07:54:57.477Z,48.1
2017-12-31T07:55:58.797Z,47.9
2017-12-31T07:57:00.391Z,47.7
2017-12-31T07:58:02.290Z,48.4
2017-12-31T07:59:03.911Z,48
2017-12-31T08:00:04.958Z,48.2
2017-12-31T08:01:06.581Z,47.7
2017-12-31T08:02:08.194Z,48.6
2017-12-31T08:03:09.512Z,48.2
2017-12-31T08:04:10.837Z,48.2
2017-12-31T08:05:12.157Z,48.4
2017-12-31T08:06:13.473Z,48.6
2017-12-31T08:07:15.092Z,48.6
2017-12-31T08:08:16.432Z,48.1
2017-12-31T08:09:18.026Z,48.4
2017-12-31T08:10:19.648Z,48.7
2017-12-31T08:11:21.543Z,48.5
2017-12-31T08:12:22.585Z,48.1
2017-12-31T08:13:24.204Z,48.3
2017-12-31T08:14:25.529Z,48.3
2017-12-31T08:15:27.128Z,48.5
2017-12-31T08:16:28.448Z,48.1
2017-12-31T08:17:30.346Z,48.4
2017-12-31T08:18:31.661Z,48.7
2017-12-31T08:19:33.562Z,48.4
2017-12-31T08:20:34.939Z,48.2
2017-12-31T08:21:36.522Z,48.2
2017-12-31T08:22:38.142Z,48.2
2017-12-31T08:23:39.762Z,48
2017-12-31T08:24:41.107Z,48.2
2017-12-31T08:25:42.424Z,48
2017-12-31T08:26:43.473Z,47.8
2017-12-31T08:27:44.789Z,47.9
2017-12-31T08:28:46.136Z,48.1
2017-12-31T08:29:47.752Z,47.9
2017-12-31T08:30:48.798Z,47.8
2017-12-31T08:31:50.417Z,48
2017-12-31T08:32:52.314Z,47.8
2017-12-31T08:33:53.647Z,47.8
2017-12-31T08:34:55.294Z,47.9
2017-12-31T08:35:56.615Z,48.1
2017-12-31T08:36:57.955Z,48
2017-12-31T08:37:59.573Z,47.7
2017-12-31T08:39:01.172Z,47.8
2017-12-31T08:40:02.794Z,47.9
2017-12-31T08:41:04.417Z,48.3
2017-12-31T08:42:05.459Z,48.4
2017-12-31T08:43:06.776Z,48
2017-12-31T08:44:08.396Z,48.3
2017-12-31T08:45:09.736Z,48
2017-12-31T08:46:11.328Z,48.1
2017-12-31T08:47:13.226Z,48.2
2017-12-31T08:48:14.549Z,48.3
2017-12-31T08:49:16.148Z,48
2017-12-31T08:50:17.767Z,47.9
2017-12-31T08:51:19.708Z,47.9
2017-12-31T08:52:21.046Z,48
2017-12-31T08:53:22.943Z,48.1
2017-12-31T08:54:24.843Z,47.8
2017-12-31T08:55:25.609Z,48.1
2017-12-31T08:56:26.955Z,48.2
2017-12-31T08:57:28.272Z,47.6
2017-12-31T08:58:30.169Z,48.1
2017-12-31T08:59:31.789Z,47.9
2017-12-31T09:00:33.158Z,48.1
2017-12-31T09:01:34.743Z,47.6
2017-12-31T09:02:36.360Z,48.2
2017-12-31T09:03:38.261Z,47.7
2017-12-31T09:04:40.159Z,48.4
2017-12-31T09:05:41.479Z,48
2017-12-31T09:06:43.099Z,48
2017-12-31T09:07:44.996Z,47.7
2017-12-31T09:08:46.613Z,47.7
2017-12-31T09:09:47.662Z,47.9
2017-12-31T09:10:49.259Z,48
2017-12-31T09:11:50.876Z,48
2017-12-31T09:12:52.777Z,47.9
2017-12-31T09:13:54.683Z,47.9
2017-12-31T09:14:56.026Z,47.9
2017-12-31T09:15:57.639Z,47.6
2017-12-31T09:16:59.541Z,47.9
2017-12-31T09:18:01.436Z,47.5
2017-12-31T09:19:03.048Z,47.9
2017-12-31T09:20:04.664Z,47.9
2017-12-31T09:21:06.284Z,47.9
2017-12-31T09:22:07.965Z,47.9
2017-12-31T09:23:09.585Z,47.8
2017-12-31T09:24:11.203Z,48
2017-12-31T09:25:13.103Z,47.8
2017-12-31T09:26:14.725Z,47.8
2017-12-31T09:27:16.347Z,47.5
2017-12-31T09:28:17.689Z,47.9
2017-12-31T09:29:19.416Z,47.9
2017-12-31T09:30:20.738Z,47.8
2017-12-31T09:31:22.080Z,47.7
2017-12-31T09:32:23.683Z,47.8
2017-12-31T09:33:25.028Z,47.7
2017-12-31T09:34:26.644Z,47.4
2017-12-31T09:35:28.264Z,47.5
2017-12-31T09:36:30.162Z,47.2
2017-12-31T09:37:32.055Z,47.9
2017-12-31T09:38:33.386Z,47.4
2017-12-31T09:39:34.450Z,47.7
2017-12-31T09:40:36.399Z,47.8
2017-12-31T09:41:38.022Z,47.9
2017-12-31T09:42:39.641Z,47.9
2017-12-31T09:43:41.291Z,47.9
2017-12-31T09:44:42.898Z,47.2
2017-12-31T09:45:44.795Z,47.9
2017-12-31T09:46:46.699Z,47.6
2017-12-31T09:47:48.313Z,47.8
2017-12-31T09:48:49.938Z,47.9
2017-12-31T09:49:51.844Z,47.1
2017-12-31T09:50:53.455Z,47.9
2017-12-31T09:51:54.781Z,47.5
2017-12-31T09:52:56.379Z,47.8
2017-12-31T09:53:57.701Z,47.8
2017-12-31T09:54:59.398Z,47.8
2017-12-31T09:56:00.997Z,47.2
2017-12-31T09:57:02.616Z,46.9
2017-12-31T09:58:04.241Z,47.1
2017-12-31T09:59:06.139Z,47.9
2017-12-31T10:00:08.038Z,47.8
2017-12-31T10:01:09.657Z,47.8
2017-12-31T10:02:11.277Z,47.8
2017-12-31T10:03:12.045Z,47.7
2017-12-31T10:04:13.664Z,48.2
2017-12-31T10:05:15.286Z,48
2017-12-31T10:06:16.941Z,47.9
2017-12-31T10:07:18.850Z,47.9
2017-12-31T10:08:20.471Z,47.7
2017-12-31T10:09:21.795Z,47.9
2017-12-31T10:10:23.416Z,47.9
2017-12-31T10:11:25.014Z,47.8
2017-12-31T10:12:26.916Z,47.7
2017-12-31T10:13:28.541Z,47.6
2017-12-31T10:14:30.438Z,47.6
2017-12-31T10:15:32.332Z,47.9
2017-12-31T10:16:34.226Z,47.5
2017-12-31T10:17:35.842Z,47.7
2017-12-31T10:18:37.468Z,47.5
2017-12-31T10:19:39.087Z,48
2017-12-31T10:20:40.980Z,48
2017-12-31T10:21:42.582Z,47.5
2017-12-31T10:22:44.216Z,47.8
2017-12-31T10:23:45.560Z,47.8
2017-12-31T10:24:47.219Z,47.8
2017-12-31T10:25:48.833Z,48.1
2017-12-31T10:26:50.179Z,48.2
2017-12-31T10:27:52.072Z,48
2017-12-31T10:28:53.691Z,47.8
2017-12-31T10:29:55.013Z,47.8
2017-12-31T10:30:56.635Z,47.4
2017-12-31T10:31:58.533Z,47.8
2017-12-31T10:32:59.874Z,48
2017-12-31T10:34:01.206Z,47.9
2017-12-31T10:35:02.546Z,47.9
2017-12-31T10:36:04.171Z,48
2017-12-31T10:37:05.502Z,47.9
2017-12-31T10:38:06.544Z,47.9
2017-12-31T10:39:08.166Z,47.7
2017-12-31T10:40:09.512Z,47.6
2017-12-31T10:41:11.413Z,47.9
2017-12-31T10:42:13.027Z,47.9
2017-12-31T10:43:14.623Z,47.9
2017-12-31T10:44:16.519Z,47.9
2017-12-31T10:45:18.422Z,47.8
2017-12-31T10:46:20.040Z,48.1
2017-12-31T10:47:21.938Z,47.8
2017-12-31T10:48:23.559Z,47.9
2017-12-31T10:49:24.904Z,48
2017-12-31T10:50:25.993Z,48.1
2017-12-31T10:51:27.322Z,47.9
2017-12-31T10:52:29.213Z,48.1
2017-12-31T10:53:30.829Z,47.5
2017-12-31T10:54:32.726Z,48.1
2017-12-31T10:55:34.322Z,48.1
2017-12-31T10:56:35.943Z,48
2017-12-31T10:57:37.294Z,48
2017-12-31T10:58:38.912Z,47.9
2017-12-31T10:59:40.811Z,48
2017-12-31T11:00:42.132Z,48.1
2017-12-31T11:01:43.752Z,47.8
2017-12-31T11:02:45.444Z,48
2017-12-31T11:03:47.059Z,48
2017-12-31T11:04:48.680Z,47.8
2017-12-31T11:05:50.022Z,47.9
2017-12-31T11:06:51.969Z,48
2017-12-31T11:07:53.863Z,48.1
2017-12-31T11:08:54.927Z,47.9
2017-12-31T11:09:56.523Z,47.7
2017-12-31T11:10:57.568Z,48.1
2017-12-31T11:11:59.562Z,48.1
2017-12-31T11:13:00.326Z,48.1
2017-12-31T11:14:01.947Z,48
2017-12-31T11:15:03.543Z,48.1
2017-12-31T11:16:04.588Z,47.8
2017-12-31T11:17:05.903Z,47.4
2017-12-31T11:18:07.224Z,47.5
2017-12-31T11:19:09.123Z,47.6
2017-12-31T11:20:11.021Z,47.9
2017-12-31T11:21:12.642Z,47.9
2017-12-31T11:22:14.541Z,47.4
2017-12-31T11:23:16.141Z,47.9
2017-12-31T11:24:18.038Z,47.6
2017-12-31T11:25:19.942Z,47.7
2017-12-31T11:26:20.991Z,47.7
2017-12-31T11:27:22.890Z,47.4
2017-12-31T11:28:24.506Z,48.1
2017-12-31T11:29:25.549Z,47.8
2017-12-31T11:30:26.594Z,47.9
2017-12-31T11:31:28.216Z,47.2
2017-12-31T11:32:29.850Z,47.6
2017-12-31T11:33:31.172Z,47.5
2017-12-31T11:34:32.796Z,47.9
2017-12-31T11:35:34.687Z,47.8
2017-12-31T11:36:36.029Z,47.4
2017-12-31T11:37:37.097Z,47.7
2017-12-31T11:38:38.441Z,47.2
2017-12-31T11:39:40.061Z,47.4
2017-12-31T11:40:41.409Z,47
2017-12-31T11:41:43.026Z,47.6
2017-12-31T11:42:44.087Z,47.9
2017-12-31T11:43:45.989Z,48
2017-12-31T11:44:47.314Z,47.5
2017-12-31T11:45:48.913Z,47.9
2017-12-31T11:46:50.528Z,46.9
2017-12-31T11:47:52.120Z,47.9
2017-12-31T11:48:53.723Z,47.8
2017-12-31T11:49:55.622Z,47.8
2017-12-31T11:50:56.963Z,47.3
2017-12-31T11:51:58.861Z,47.9
2017-12-31T11:53:00.763Z,47.4
2017-12-31T11:54:02.104Z,47.6
2017-12-31T11:55:03.428Z,47.6
2017-12-31T11:56:04.746Z,48
2017-12-31T11:57:06.071Z,47.8
2017-12-31T11:58:07.972Z,47.8
2017-12-31T11:59:09.591Z,47.6
2017-12-31T12:00:10.930Z,47.6
2017-12-31T12:01:12.549Z,47.9
2017-12-31T12:02:14.169Z,47.9
2017-12-31T12:03:15.793Z,47.6
2017-12-31T12:04:17.417Z,47.6
2017-12-31T12:05:19.034Z,48
2017-12-31T12:06:20.355Z,48.2
2017-12-31T12:07:22.023Z,47.9
2017-12-31T12:08:23.919Z,48.1
2017-12-31T12:09:25.245Z,48
2017-12-31T12:10:26.590Z,48.1
2017-12-31T12:11:27.939Z,47.9
2017-12-31T12:12:29.660Z,47.8
2017-12-31T12:13:31.316Z,47.9
2017-12-31T12:14:32.660Z,47.9
2017-12-31T12:15:34.559Z,48.1
2017-12-31T12:16:36.458Z,47.9
2017-12-31T12:17:38.392Z,47.8
2017-12-31T12:18:40.014Z,47.9
2017-12-31T12:19:41.913Z,48
2017-12-31T12:20:43.236Z,47.6
2017-12-31T12:21:44.603Z,48.1
2017-12-31T12:22:46.289Z,48
2017-12-31T12:23:47.910Z,47.8
2017-12-31T12:24:49.529Z,48.1
2017-12-31T12:25:50.876Z,47.8
2017-12-31T12:26:52.498Z,47.9
2017-12-31T12:27:54.397Z,48.1
2017-12-31T12:28:56.299Z,48.4
2017-12-31T12:29:57.362Z,47.8
2017-12-31T12:30:58.983Z,47.9
2017-12-31T12:32:00.300Z,48.1
2017-12-31T12:33:01.661Z,48.3
2017-12-31T12:34:03.286Z,48
2017-12-31T12:35:05.190Z,48
2017-12-31T12:36:06.231Z,47.9
2017-12-31T12:37:08.125Z,48.1
2017-12-31T12:38:10.021Z,47.9
2017-12-31T12:39:11.915Z,47.8
2017-12-31T12:40:13.263Z,47.9
2017-12-31T12:41:14.307Z,47.9
2017-12-31T12:42:16.204Z,48
2017-12-31T12:43:17.824Z,47.5
2017-12-31T12:44:19.442Z,48.1
2017-12-31T12:45:21.042Z,47.9
2017-12-31T12:46:22.656Z,47.5
2017-12-31T12:47:24.277Z,48.2
2017-12-31T12:48:25.878Z,47.8
2017-12-31T12:49:27.776Z,47.9
2017-12-31T12:50:29.675Z,47.9
2017-12-31T12:51:31.573Z,47.9
2017-12-31T12:52:33.193Z,47.8
2017-12-31T12:53:34.788Z,47.8
2017-12-31T12:54:36.131Z,47.9
2017-12-31T12:55:37.185Z,47.6
2017-12-31T12:56:38.502Z,47.9
2017-12-31T12:57:40.401Z,48
2017-12-31T12:58:42.023Z,48
2017-12-31T12:59:43.082Z,47.7
2017-12-31T13:00:44.698Z,47.9
2017-12-31T13:01:46.320Z,47.9
2017-12-31T13:02:47.658Z,47.9
2017-12-31T13:03:49.276Z,47.9
2017-12-31T13:04:51.178Z,47.6
2017-12-31T13:05:52.790Z,48.1
2017-12-31T13:06:53.860Z,48.4
2017-12-31T13:07:55.304Z,48.2
2017-12-31T13:08:56.903Z,48.1
2017-12-31T13:09:58.797Z,48.1
2017-12-31T13:10:59.866Z,48.4
2017-12-31T13:12:01.501Z,47.8
2017-12-31T13:13:02.845Z,48.1
2017-12-31T13:14:04.169Z,48.3
2017-12-31T13:15:05.488Z,48.1
2017-12-31T13:16:07.088Z,47.9
2017-12-31T13:17:08.983Z,48.2
2017-12-31T13:18:10.604Z,47.9
2017-12-31T13:19:12.502Z,48
2017-12-31T13:20:13.571Z,48.3
2017-12-31T13:21:15.192Z,48.1
2017-12-31T13:22:16.864Z,47.5
2017-12-31T13:23:18.768Z,48.1
2017-12-31T13:24:20.112Z,47.9
2017-12-31T13:25:22.006Z,47.7
2017-12-31T13:26:23.328Z,48.4
2017-12-31T13:27:24.649Z,48.4
2017-12-31T13:28:26.268Z,48.2
2017-12-31T13:29:27.871Z,48.3
2017-12-31T13:30:29.495Z,47.9
2017-12-31T13:31:30.816Z,47.7
2017-12-31T13:32:32.713Z,47.9
2017-12-31T13:33:34.042Z,47.7
2017-12-31T13:34:35.659Z,48.2
2017-12-31T13:35:37.011Z,47.8
2017-12-31T13:36:38.330Z,47.9
2017-12-31T13:37:40.230Z,47.8
2017-12-31T13:38:42.127Z,47.8
2017-12-31T13:39:44.037Z,48
2017-12-31T13:40:45.668Z,48
2017-12-31T13:41:47.294Z,47.9
2017-12-31T13:42:48.893Z,48.1
2017-12-31T13:43:50.231Z,47.7
2017-12-31T13:44:51.856Z,47.8